Time;durP1;ratioP1;P1;durP2;ratioP2;P2;SDS_P1;SDS_P2;PMS_P1;PMS_P2;Temp;Humidity;BMP_temperature;BMP_pressure;BME280_temperature;BME280_humidity;BME280_pressure;Samples;Min_cycle;Max_cycle;Signal;HPM_P1;HPM_P2
2022/01/16 00:04:50;;;;;;;0.47;0.47;;;4.30;99.90;;;;;;5033605;28;20494;-66
2022/01/16 00:07:37;;;;;;;0.40;0.40;;;4.20;99.90;;;;;;5033723;28;20507;-65
2022/01/16 00:10:26;;;;;;;0.40;0.40;;;4.20;99.90;;;;;;5034455;28;20417;-66
2022/01/16 00:13:15;;;;;;;0.40;0.40;;;4.10;99.90;;;;;;5034582;28;20425;-66
2022/01/16 00:16:03;;;;;;;0.40;0.40;;;4.00;99.90;;;;;;5034180;28;20489;-66
2022/01/16 00:18:52;;;;;;;0.40;0.40;;;4.00;99.90;;;;;;5033403;28;20495;-66
2022/01/16 00:21:41;;;;;;;0.70;0.70;;;3.90;99.90;;;;;;5032579;28;20468;-66
2022/01/16 00:24:28;;;;;;;0.40;0.40;;;3.80;99.90;;;;;;5033409;28;20512;-66
2022/01/16 00:27:15;;;;;;;0.40;0.40;;;3.70;99.90;;;;;;5033781;28;20440;-66
2022/01/16 00:30:04;;;;;;;0.40;0.40;;;3.70;99.90;;;;;;5033251;28;20420;-66
2022/01/16 00:32:51;;;;;;;0.40;0.40;;;3.50;99.90;;;;;;5032349;28;20953;-66
2022/01/16 00:35:38;;;;;;;0.40;0.40;;;3.40;99.90;;;;;;5033507;28;20840;-66
2022/01/16 00:38:25;;;;;;;0.40;0.40;;;3.30;99.90;;;;;;5033674;28;20470;-66
2022/01/16 00:41:13;;;;;;;0.40;0.40;;;3.20;99.90;;;;;;5033351;28;20445;-66
2022/01/16 00:44:00;;;;;;;0.40;0.40;;;3.10;99.90;;;;;;5033349;28;20425;-66
2022/01/16 00:46:48;;;;;;;0.40;0.40;;;3.00;99.90;;;;;;5033378;28;20417;-66
2022/01/16 00:49:39;;;;;;;0.40;0.40;;;2.90;99.90;;;;;;5033328;28;20436;-66
2022/01/16 00:52:25;;;;;;;0.40;0.40;;;2.90;99.90;;;;;;5033087;28;20474;-65
2022/01/16 00:55:12;;;;;;;0.40;0.40;;;2.90;99.90;;;;;;5032255;28;20464;-66
2022/01/16 00:58:00;;;;;;;0.40;0.40;;;3.00;99.90;;;;;;5033182;28;20774;-66
2022/01/16 01:00:47;;;;;;;0.40;0.40;;;3.00;99.90;;;;;;5033074;28;20445;-65
2022/01/16 01:03:36;;;;;;;0.40;0.40;;;3.30;99.90;;;;;;5032167;28;20539;-66
2022/01/16 01:06:23;;;;;;;0.40;0.40;;;3.30;99.90;;;;;;5035411;28;20422;-66
2022/01/16 01:09:10;;;;;;;0.50;0.50;;;3.30;99.90;;;;;;5036893;28;20432;-66
2022/01/16 01:11:57;;;;;;;0.40;0.40;;;3.40;99.90;;;;;;5037629;28;20964;-66
2022/01/16 01:15:04;;;;;;;0.40;0.40;;;3.40;99.90;;;;;;5037490;28;20516;-66
2022/01/16 01:17:51;;;;;;;0.40;0.40;;;3.40;99.90;;;;;;5036972;28;20425;-66
2022/01/16 01:20:41;;;;;;;0.40;0.40;;;3.40;99.90;;;;;;5037003;28;20461;-66
2022/01/16 01:23:29;;;;;;;0.40;0.40;;;3.30;99.90;;;;;;5036928;28;20475;-66
2022/01/16 01:26:16;;;;;;;0.40;0.40;;;3.30;99.90;;;;;;5036797;28;20959;-66
2022/01/16 01:29:03;;;;;;;0.40;0.40;;;3.20;99.90;;;;;;5036402;28;20425;-66
2022/01/16 01:31:52;;;;;;;0.40;0.40;;;3.10;99.90;;;;;;5036716;28;20444;-66
2022/01/16 01:34:39;;;;;;;0.40;0.40;;;2.90;99.90;;;;;;5036302;28;20428;-66
2022/01/16 01:37:27;;;;;;;0.40;0.40;;;2.80;99.90;;;;;;5036449;28;20623;-66
2022/01/16 01:40:17;;;;;;;0.40;0.40;;;2.60;99.90;;;;;;5035839;28;20421;-66
2022/01/16 01:51:02;;;;;;;0.40;0.40;;;2.50;99.90;;;;;;5037030;28;20432;-66
2022/01/16 01:52:22;;;;;;;0.40;0.40;;;2.20;99.90;;;;;;5036546;28;20450;-66
2022/01/16 01:55:11;;;;;;;0.40;0.40;;;2.10;99.90;;;;;;5037093;28;20487;-66
2022/01/16 01:57:57;;;;;;;0.40;0.40;;;2.10;99.90;;;;;;5036761;28;20428;-66
2022/01/16 02:00:44;;;;;;;0.40;0.40;;;1.90;99.90;;;;;;5036095;28;20460;-65
2022/01/16 02:03:42;;;;;;;0.40;0.40;;;1.90;99.90;;;;;;5036605;28;20429;-66
2022/01/16 02:06:31;;;;;;;0.40;0.40;;;1.90;99.90;;;;;;5036472;28;20794;-66
2022/01/16 02:09:18;;;;;;;0.40;0.40;;;1.80;99.90;;;;;;5036462;28;20452;-66
2022/01/16 02:12:08;;;;;;;0.40;0.40;;;1.80;99.90;;;;;;5036155;28;20444;-66
2022/01/16 02:15:02;;;;;;;0.40;0.40;;;1.70;99.90;;;;;;5036925;28;20511;-66
2022/01/16 02:36:28;;;;;;;0.40;0.40;;;1.50;99.90;;;;;;5035527;28;20491;-65
2022/01/16 02:39:17;;;;;;;0.40;0.40;;;1.50;99.90;;;;;;5035706;28;20434;-65
2022/01/16 02:42:05;;;;;;;0.40;0.40;;;1.40;99.90;;;;;;5035264;28;20449;-66
2022/01/16 02:45:01;;;;;;;0.40;0.40;;;1.40;99.90;;;;;;5035924;28;20418;-66
2022/01/16 02:47:48;;;;;;;0.40;0.40;;;1.40;99.90;;;;;;5036247;28;20421;-66
2022/01/16 02:50:36;;;;;;;0.40;0.40;;;1.40;99.90;;;;;;5035835;28;20449;-66
2022/01/16 02:53:26;;;;;;;0.40;0.40;;;1.40;99.90;;;;;;5035273;28;20810;-66
2022/01/16 02:56:15;;;;;;;17.87;17.07;;;1.30;99.90;;;;;;5035380;28;20476;-66
2022/01/16 02:59:02;;;;;;;0.40;0.40;;;1.40;99.90;;;;;;5037935;28;20452;-66
2022/01/16 03:01:50;;;;;;;0.40;0.40;;;1.30;99.90;;;;;;5035666;28;21003;-66
2022/01/16 03:04:37;;;;;;;0.40;0.40;;;1.30;99.90;;;;;;5035675;28;20433;-66
2022/01/16 03:07:25;;;;;;;0.40;0.40;;;1.20;99.90;;;;;;5035521;28;20425;-66
2022/01/16 03:10:40;;;;;;;0.40;0.40;;;1.30;99.90;;;;;;5034957;28;20964;-66
2022/01/16 03:13:31;;;;;;;0.40;0.40;;;1.20;99.90;;;;;;5035221;28;20456;-65
2022/01/16 03:16:20;;;;;;;0.40;0.40;;;1.20;99.90;;;;;;5035205;28;20608;-65
2022/01/16 03:22:11;;;;;;;0.43;0.43;;;1.20;99.90;;;;;;5069121;22;20515;-68
2022/01/16 03:24:58;;;;;;;0.40;0.40;;;1.10;99.90;;;;;;5054832;28;20420;-68
2022/01/16 03:27:45;;;;;;;0.50;0.50;;;1.10;99.90;;;;;;5054703;28;20428;-68
2022/01/16 03:30:33;;;;;;;0.50;0.50;;;1.10;99.90;;;;;;5052605;28;20951;-69
2022/01/16 03:33:21;;;;;;;0.50;0.50;;;1.00;99.90;;;;;;5034402;28;20433;-68
2022/01/16 03:36:08;;;;;;;0.50;0.50;;;1.00;99.90;;;;;;5033102;28;21003;-68
2022/01/16 03:38:55;;;;;;;0.50;0.50;;;1.00;99.90;;;;;;5033947;28;20984;-68
2022/01/16 03:41:42;;;;;;;0.47;0.47;;;1.00;99.90;;;;;;5033936;28;20455;-68
2022/01/16 03:44:29;;;;;;;0.50;0.50;;;1.00;99.90;;;;;;5033601;28;20422;-69
2022/01/16 03:47:17;;;;;;;0.50;0.50;;;1.00;99.90;;;;;;5034223;28;20829;-68
2022/01/16 03:50:05;;;;;;;0.50;0.50;;;1.00;99.90;;;;;;5034147;28;20472;-69
2022/01/16 03:52:53;;;;;;;0.50;0.50;;;1.00;99.90;;;;;;5033774;28;20437;-67
2022/01/16 03:55:40;;;;;;;0.40;0.40;;;1.00;99.90;;;;;;5034070;28;20461;-67
2022/01/16 03:58:27;;;;;;;0.40;0.40;;;1.00;99.90;;;;;;5034298;28;20436;-69
2022/01/16 04:01:14;;;;;;;0.40;0.40;;;1.00;99.90;;;;;;5034051;28;20972;-68
2022/01/16 04:04:03;;;;;;;0.40;0.40;;;1.00;99.90;;;;;;5033562;28;20811;-69
2022/01/16 04:06:50;;;;;;;0.40;0.40;;;0.90;99.90;;;;;;5046583;28;20430;-73
2022/01/16 04:09:37;;;;;;;0.40;0.40;;;0.90;99.90;;;;;;5054500;28;20460;-69
2022/01/16 04:12:24;;;;;;;1.07;1.07;;;0.90;99.90;;;;;;5055453;28;20455;-71
2022/01/16 04:18:17;;;;;;;0.50;0.50;;;0.80;99.90;;;;;;5053801;28;20460;-70
2022/01/16 04:21:06;;;;;;;0.40;0.40;;;0.70;99.90;;;;;;5053173;28;20461;-70
2022/01/16 04:23:53;;;;;;;0.40;0.40;;;0.70;99.90;;;;;;5053307;28;20434;-69
2022/01/16 04:26:40;;;;;;;0.40;0.40;;;0.70;99.90;;;;;;5054201;28;20825;-70
2022/01/16 04:29:27;;;;;;;0.40;0.40;;;0.70;99.90;;;;;;5053297;28;20421;-69
2022/01/16 04:32:14;;;;;;;0.50;0.50;;;0.60;99.90;;;;;;5052781;28;20464;-70
2022/01/16 04:35:01;;;;;;;0.40;0.40;;;0.70;99.90;;;;;;5051377;28;20429;-69
2022/01/16 04:37:50;;;;;;;0.50;0.50;;;0.70;99.90;;;;;;5045932;28;20424;-70
2022/01/16 04:40:44;;;;;;;0.50;0.50;;;0.70;99.90;;;;;;5041435;28;20426;-69
2022/01/16 04:43:48;;;;;;;0.50;0.50;;;0.70;99.90;;;;;;5039436;28;20428;-68
2022/01/16 04:46:35;;;;;;;0.40;0.40;;;0.70;99.90;;;;;;5037837;28;20420;-68
2022/01/16 04:49:22;;;;;;;0.43;0.43;;;0.70;99.90;;;;;;5037316;28;20418;-68
2022/01/16 04:52:09;;;;;;;0.50;0.50;;;0.70;99.90;;;;;;5037359;28;20440;-69
2022/01/16 04:54:57;;;;;;;0.50;0.50;;;0.70;99.90;;;;;;5037343;28;20975;-69
2022/01/16 04:57:44;;;;;;;0.43;0.43;;;0.60;99.90;;;;;;5037021;28;20465;-68
2022/01/16 05:00:31;;;;;;;0.40;0.40;;;0.60;99.90;;;;;;5037032;28;20421;-69
2022/01/16 05:03:18;;;;;;;0.50;0.50;;;0.60;99.90;;;;;;5037941;28;20965;-68
2022/01/16 05:06:06;;;;;;;0.43;0.43;;;0.60;99.90;;;;;;5037823;28;20425;-69
2022/01/16 05:08:53;;;;;;;0.50;0.50;;;0.60;99.90;;;;;;5036857;28;20417;-69
2022/01/16 05:11:41;;;;;;;0.53;0.53;;;0.60;99.90;;;;;;5037364;28;20441;-67
2022/01/16 05:17:33;;;;;;;0.43;0.43;;;0.60;99.90;;;;;;5037269;28;20980;-68
2022/01/16 05:20:20;;;;;;;0.50;0.50;;;0.50;99.90;;;;;;5036875;28;20427;-68
2022/01/16 05:23:07;;;;;;;0.40;0.40;;;0.50;99.90;;;;;;5037021;28;20972;-67
2022/01/16 05:25:54;;;;;;;0.50;0.50;;;0.50;99.90;;;;;;5037430;28;20428;-67
2022/01/16 05:28:42;;;;;;;0.50;0.50;;;0.50;99.90;;;;;;5036935;28;20429;-68
2022/01/16 05:31:29;;;;;;;0.40;0.40;;;0.50;99.90;;;;;;5036886;28;20441;-67
2022/01/16 05:34:18;;;;;;;0.50;0.50;;;0.50;99.90;;;;;;5037220;28;20440;-69
2022/01/16 05:37:05;;;;;;;0.50;0.50;;;0.50;99.90;;;;;;5036766;28;20464;-67
2022/01/16 05:39:52;;;;;;;0.40;0.40;;;0.40;99.90;;;;;;5036939;28;20424;-67
2022/01/16 05:42:39;;;;;;;0.40;0.40;;;0.50;99.90;;;;;;5037052;28;20445;-68
2022/01/16 05:45:27;;;;;;;0.40;0.40;;;0.70;99.90;;;;;;5056586;28;20440;-67
2022/01/16 05:48:14;;;;;;;0.50;0.50;;;0.50;99.90;;;;;;5055207;28;20425;-69
2022/01/16 05:51:01;;;;;;;2.20;2.10;;;0.50;99.90;;;;;;5054783;28;20453;-70
2022/01/16 05:53:51;;;;;;;0.50;0.50;;;0.50;99.90;;;;;;5052189;28;20455;-69
2022/01/16 05:56:37;;;;;;;0.40;0.40;;;0.50;99.90;;;;;;5039091;28;20560;-68
2022/01/16 05:59:24;;;;;;;0.40;0.40;;;0.50;99.90;;;;;;5037131;28;20432;-68
2022/01/16 06:02:13;;;;;;;0.50;0.50;;;0.50;99.90;;;;;;5036287;28;20445;-67
2022/01/16 06:05:00;;;;;;;0.50;0.50;;;0.50;99.90;;;;;;5035631;28;20422;-68
2022/01/16 06:07:52;;;;;;;0.40;0.40;;;0.60;99.90;;;;;;5036083;28;20433;-67
2022/01/16 06:10:40;;;;;;;0.50;0.50;;;0.60;99.90;;;;;;5035512;28;20426;-68
2022/01/16 06:13:27;;;;;;;0.50;0.50;;;0.50;99.90;;;;;;5036276;28;20433;-67
2022/01/16 06:16:14;;;;;;;0.50;0.50;;;0.50;99.90;;;;;;5035836;28;20467;-68
2022/01/16 06:19:02;;;;;;;0.40;0.40;;;0.50;99.90;;;;;;5036083;28;20433;-68
2022/01/16 06:21:49;;;;;;;0.40;0.40;;;0.50;99.90;;;;;;5036196;28;20466;-68
2022/01/16 06:24:36;;;;;;;0.40;0.40;;;0.50;99.90;;;;;;5036011;28;20418;-68
2022/01/16 06:27:23;;;;;;;5.57;3.90;;;0.50;99.90;;;;;;5036009;28;20426;-68
2022/01/16 06:30:11;;;;;;;0.40;0.40;;;0.50;99.90;;;;;;5036491;28;20430;-68
2022/01/16 06:32:58;;;;;;;0.80;0.80;;;0.50;99.90;;;;;;5040313;28;20426;-70
2022/01/16 06:35:47;;;;;;;0.40;0.40;;;0.40;99.90;;;;;;5039420;28;20426;-67
2022/01/16 06:38:34;;;;;;;0.40;0.40;;;0.40;99.90;;;;;;5038729;28;20820;-71
2022/01/16 06:41:21;;;;;;;0.40;0.40;;;0.40;99.90;;;;;;5036970;28;20440;-70
2022/01/16 06:44:08;;;;;;;0.40;0.40;;;0.40;99.90;;;;;;5036927;28;20422;-71
2022/01/16 06:46:55;;;;;;;0.50;0.50;;;0.40;99.90;;;;;;5038605;28;20421;-69
2022/01/16 06:49:42;;;;;;;0.40;0.40;;;0.40;99.90;;;;;;5044700;28;20428;-68
2022/01/16 06:52:30;;;;;;;0.77;0.77;;;0.40;99.90;;;;;;5042195;28;21001;-68
2022/01/16 06:55:17;;;;;;;0.40;0.40;;;0.30;99.90;;;;;;5042503;28;20780;-71
2022/01/16 06:58:04;;;;;;;0.50;0.50;;;0.30;99.90;;;;;;5037417;28;20461;-69
2022/01/16 07:00:51;;;;;;;0.43;0.43;;;0.30;99.90;;;;;;5037720;28;20837;-70
2022/01/16 07:03:38;;;;;;;0.43;0.43;;;0.30;99.90;;;;;;5037308;28;20952;-67
2022/01/16 07:06:25;;;;;;;0.40;0.40;;;0.30;99.90;;;;;;5035545;28;20772;-68
2022/01/16 07:09:14;;;;;;;0.80;0.80;;;0.30;99.90;;;;;;5035133;28;20524;-68
2022/01/16 07:12:01;;;;;;;0.50;0.50;;;0.30;99.90;;;;;;5034998;28;20446;-68
2022/01/16 07:14:48;;;;;;;0.40;0.40;;;0.30;99.90;;;;;;5035042;28;20432;-68
2022/01/16 07:17:35;;;;;;;0.40;0.40;;;0.30;99.90;;;;;;5034696;28;20465;-69
2022/01/16 07:20:22;;;;;;;0.50;0.50;;;0.30;99.90;;;;;;5035215;28;20428;-68
2022/01/16 07:23:09;;;;;;;0.40;0.40;;;0.30;99.90;;;;;;5035157;28;20418;-68
2022/01/16 07:25:57;;;;;;;1.00;1.00;;;0.30;99.90;;;;;;5033573;28;20421;-68
2022/01/16 07:28:44;;;;;;;0.50;0.50;;;0.40;99.90;;;;;;5034394;28;20425;-68
2022/01/16 07:31:31;;;;;;;0.50;0.50;;;0.40;99.90;;;;;;5034301;28;20440;-68
2022/01/16 07:34:18;;;;;;;0.50;0.50;;;0.40;99.90;;;;;;5034509;28;20417;-68
2022/01/16 07:37:06;;;;;;;0.50;0.50;;;0.50;99.90;;;;;;5034369;28;20985;-68
2022/01/16 07:39:53;;;;;;;0.50;0.50;;;0.50;99.90;;;;;;5034498;28;20429;-67
2022/01/16 07:42:41;;;;;;;0.47;0.47;;;0.60;99.90;;;;;;5034304;28;20476;-68
2022/01/16 07:45:28;;;;;;;0.50;0.50;;;0.60;99.90;;;;;;5034041;28;20445;-68
2022/01/16 07:48:15;;;;;;;0.40;0.40;;;0.70;99.90;;;;;;5033098;28;20934;-68
2022/01/16 07:51:04;;;;;;;0.50;0.50;;;0.70;99.90;;;;;;5033287;28;20445;-67
2022/01/16 07:53:52;;;;;;;9.43;3.23;;;0.80;99.90;;;;;;5034136;28;20503;-68
2022/01/16 07:56:39;;;;;;;0.50;0.50;;;0.70;99.90;;;;;;5033512;28;20842;-67
2022/01/16 07:59:27;;;;;;;0.50;0.50;;;0.80;99.90;;;;;;5035086;28;20853;-68
2022/01/16 08:02:14;;;;;;;0.50;0.50;;;0.80;99.90;;;;;;5034309;28;20503;-67
2022/01/16 08:05:01;;;;;;;2.10;1.80;;;0.90;99.90;;;;;;5034608;28;20428;-68
2022/01/16 08:07:48;;;;;;;0.50;0.50;;;0.90;99.90;;;;;;5034661;28;20445;-68
2022/01/16 08:10:35;;;;;;;0.63;0.63;;;0.90;99.90;;;;;;5033864;28;20937;-69
2022/01/16 08:13:23;;;;;;;0.50;0.50;;;0.90;99.90;;;;;;5034382;28;20433;-68
2022/01/16 08:16:11;;;;;;;1.70;1.60;;;0.90;99.90;;;;;;5033169;28;20440;-68
2022/01/16 08:18:58;;;;;;;0.50;0.50;;;1.00;99.90;;;;;;5034623;28;20441;-68
2022/01/16 08:21:45;;;;;;;0.50;0.50;;;1.00;99.90;;;;;;5033672;28;20468;-69
2022/01/16 08:24:32;;;;;;;0.50;0.50;;;1.20;99.90;;;;;;5034361;28;20941;-69
2022/01/16 08:27:19;;;;;;;0.50;0.50;;;1.30;99.90;;;;;;5034398;28;20806;-68
2022/01/16 08:30:07;;;;;;;0.50;0.50;;;1.40;99.90;;;;;;5045298;28;20417;-68
2022/01/16 08:32:56;;;;;;;0.50;0.50;;;1.60;99.90;;;;;;5050201;28;20433;-68
2022/01/16 08:35:43;;;;;;;0.40;0.40;;;1.60;99.90;;;;;;5051936;28;20497;-69
2022/01/16 08:38:30;;;;;;;0.47;0.47;;;1.70;99.90;;;;;;5048065;28;20469;-69
2022/01/16 08:41:17;;;;;;;0.40;0.40;;;1.80;99.90;;;;;;5041884;28;20453;-69
2022/01/16 08:44:06;;;;;;;1.60;1.33;;;1.90;99.90;;;;;;5035453;28;20429;-68
2022/01/16 08:46:53;;;;;;;0.50;0.50;;;2.00;99.90;;;;;;5034399;28;20492;-68
2022/01/16 08:49:41;;;;;;;0.40;0.40;;;2.10;99.90;;;;;;5033920;28;20484;-68
2022/01/16 08:52:28;;;;;;;0.50;0.50;;;2.10;99.90;;;;;;5032963;28;20982;-68
2022/01/16 08:55:15;;;;;;;0.60;0.60;;;2.00;99.90;;;;;;5033182;28;20830;-69
2022/01/16 08:58:03;;;;;;;0.50;0.50;;;2.10;99.90;;;;;;5033999;28;20831;-69
2022/01/16 09:00:50;;;;;;;0.83;0.83;;;2.20;99.90;;;;;;5033792;28;20811;-68
2022/01/16 09:03:38;;;;;;;0.40;0.40;;;2.30;99.90;;;;;;5033612;28;20425;-69
2022/01/16 09:06:27;;;;;;;0.40;0.40;;;2.40;99.90;;;;;;5034101;28;20429;-69
2022/01/16 09:09:14;;;;;;;0.40;0.40;;;2.50;99.90;;;;;;5034553;28;20496;-68
2022/01/16 09:12:01;;;;;;;0.50;0.50;;;2.60;99.90;;;;;;5034108;28;20444;-69
2022/01/16 09:14:48;;;;;;;3.07;1.23;;;2.70;99.90;;;;;;5033935;28;20428;-67
2022/01/16 09:17:35;;;;;;;0.40;0.40;;;2.70;99.90;;;;;;5033623;28;20770;-68
2022/01/16 09:20:22;;;;;;;0.60;0.60;;;2.70;99.90;;;;;;5033285;28;20436;-68
2022/01/16 09:23:11;;;;;;;1.13;1.13;;;2.60;99.90;;;;;;5036413;28;20421;-70
2022/01/16 09:25:58;;;;;;;0.40;0.40;;;2.60;99.90;;;;;;5035451;28;20433;-68
2022/01/16 09:28:45;;;;;;;0.50;0.50;;;2.70;99.90;;;;;;5039413;28;20429;-69
2022/01/16 09:31:32;;;;;;;0.50;0.50;;;2.80;99.90;;;;;;5039611;28;20456;-68
2022/01/16 09:34:19;;;;;;;0.50;0.50;;;2.80;99.90;;;;;;5040150;28;20424;-69
2022/01/16 09:37:08;;;;;;;0.40;0.40;;;2.80;99.90;;;;;;5039686;28;20417;-68
2022/01/16 09:39:58;;;;;;;0.40;0.40;;;2.80;99.90;;;;;;5038665;28;20431;-68
2022/01/16 09:42:45;;;;;;;0.40;0.40;;;2.80;99.90;;;;;;5038485;28;20961;-68
2022/01/16 09:45:32;;;;;;;0.50;0.50;;;3.00;99.90;;;;;;5039899;28;20809;-68
2022/01/16 09:48:20;;;;;;;0.40;0.40;;;3.10;99.90;;;;;;5039761;28;20421;-68
2022/01/16 09:51:07;;;;;;;0.40;0.40;;;3.20;99.90;;;;;;5040959;28;20452;-69
2022/01/16 09:53:54;;;;;;;0.43;0.43;;;3.30;99.90;;;;;;5038987;28;20783;-69
2022/01/16 09:56:42;;;;;;;1.73;1.63;;;3.40;99.90;;;;;;5039464;28;20440;-69
2022/01/16 09:59:29;;;;;;;1.20;0.80;;;3.40;99.90;;;;;;5039333;28;20422;-69
2022/01/16 10:02:16;;;;;;;1.80;1.70;;;3.40;99.90;;;;;;5039726;28;20475;-69
2022/01/16 10:05:23;;;;;;;3.23;2.10;;;3.30;99.90;;;;;;5039746;28;20414;-68
2022/01/16 10:08:11;;;;;;;3.03;2.20;;;3.00;99.90;;;;;;5039516;28;20874;-69
2022/01/16 10:10:59;;;;;;;1.33;1.23;;;2.90;99.90;;;;;;5039046;28;20440;-68
2022/01/16 10:13:57;;;;;;;9.83;4.00;;;2.60;99.90;;;;;;5040462;28;20429;-69
2022/01/16 10:16:44;;;;;;;1.27;1.17;;;2.40;99.90;;;;;;5041526;28;20421;-67
2022/01/16 10:19:31;;;;;;;8.57;5.13;;;2.30;99.90;;;;;;5040952;28;20437;-70
2022/01/16 10:22:18;;;;;;;0.50;0.50;;;2.10;99.90;;;;;;5041700;28;20665;-68
2022/01/16 10:25:05;;;;;;;4.63;2.40;;;2.10;99.90;;;;;;5040290;28;20429;-68
2022/01/16 10:27:52;;;;;;;1.70;1.60;;;2.10;99.90;;;;;;5039741;28;20425;-70
2022/01/16 10:30:43;;;;;;;4.00;2.70;;;2.00;99.90;;;;;;5038754;28;20413;-69
2022/01/16 10:33:34;;;;;;;6.43;2.47;;;2.00;99.90;;;;;;5040407;28;20502;-70
2022/01/16 10:36:35;;;;;;;4.00;2.60;;;2.00;99.90;;;;;;5038257;28;20414;-69
2022/01/16 10:39:22;;;;;;;9.07;5.57;;;1.90;99.90;;;;;;5038557;28;20457;-68
2022/01/16 10:42:15;;;;;;;3.43;2.77;;;2.10;99.90;;;;;;5038305;28;20437;-69
2022/01/16 10:45:06;;;;;;;5.23;2.53;;;2.10;99.90;;;;;;5037575;28;20434;-69
2022/01/16 10:47:56;;;;;;;1.57;1.57;;;2.10;99.90;;;;;;5038187;28;20429;-69
2022/01/16 10:50:44;;;;;;;3.40;1.47;;;2.10;99.90;;;;;;5038157;28;20476;-69
2022/01/16 10:53:39;;;;;;;0.50;0.50;;;2.20;99.90;;;;;;5038138;28;20425;-70
2022/01/16 10:56:28;;;;;;;5.57;3.93;;;2.30;99.90;;;;;;5037557;28;20425;-69
2022/01/16 10:59:22;;;;;;;0.40;0.40;;;2.40;99.90;;;;;;5037200;28;20476;-67
2022/01/16 11:02:09;;;;;;;0.50;0.50;;;2.50;99.90;;;;;;5038846;28;20453;-68
2022/01/16 11:05:06;;;;;;;2.63;2.43;;;2.60;99.90;;;;;;5038137;28;20428;-68
2022/01/16 11:07:57;;;;;;;2.33;1.97;;;2.70;99.90;;;;;;5039017;28;20417;-68
2022/01/16 11:10:46;;;;;;;2.53;1.83;;;2.70;99.90;;;;;;5037924;28;20999;-69
2022/01/16 11:13:34;;;;;;;1.00;1.00;;;2.60;99.90;;;;;;5041413;28;20429;-70
2022/01/16 11:16:23;;;;;;;1.43;0.60;;;2.60;99.90;;;;;;5047173;28;20425;-68
2022/01/16 11:19:10;;;;;;;2.73;2.53;;;2.60;99.90;;;;;;5046238;28;20469;-69
2022/01/16 11:22:03;;;;;;;1.10;1.00;;;2.60;99.90;;;;;;5053453;28;20471;-68
2022/01/16 11:25:09;;;;;;;2.40;1.83;;;2.70;99.90;;;;;;5054593;28;20436;-67
2022/01/16 11:27:56;;;;;;;0.40;0.40;;;2.70;99.90;;;;;;5054238;28;20420;-68
2022/01/16 11:30:47;;;;;;;0.70;0.70;;;2.70;99.90;;;;;;5054848;28;20848;-69
2022/01/16 11:33:35;;;;;;;0.50;0.50;;;2.90;99.90;;;;;;5054055;28;20456;-69
2022/01/16 11:36:23;;;;;;;0.90;0.90;;;3.00;99.90;;;;;;5055736;28;20440;-69
2022/01/16 11:39:12;;;;;;;2.70;1.60;;;3.10;99.90;;;;;;5055715;28;20532;-67
2022/01/16 11:41:59;;;;;;;0.40;0.40;;;3.00;99.90;;;;;;5056182;28;20465;-68
2022/01/16 11:44:52;;;;;;;1.90;1.80;;;3.10;99.90;;;;;;5053916;28;20460;-68
2022/01/16 11:47:57;;;;;;;0.50;0.50;;;3.20;99.90;;;;;;5055246;28;20452;-68
2022/01/16 11:50:44;;;;;;;0.50;0.50;;;3.20;99.90;;;;;;5040225;28;20817;-69
2022/01/16 11:54:06;;;;;;;3.13;1.87;;;3.20;99.90;;;;;;5036447;28;20430;-69
2022/01/16 11:56:58;;;;;;;3.17;1.37;;;3.30;99.90;;;;;;5038211;28;20428;-68
2022/01/16 11:59:46;;;;;;;0.50;0.50;;;3.30;99.90;;;;;;5036483;28;20468;-69
2022/01/16 12:02:38;;;;;;;1.30;0.80;;;3.30;99.90;;;;;;5037495;28;20957;-69
2022/01/16 12:05:26;;;;;;;2.47;1.67;;;3.40;99.90;;;;;;5036609;28;20425;-70
2022/01/16 12:08:19;;;;;;;1.50;1.40;;;3.50;99.90;;;;;;5036948;28;20424;-68
2022/01/16 12:11:06;;;;;;;1.03;1.03;;;3.50;99.90;;;;;;5037244;28;21055;-68
2022/01/16 12:13:54;;;;;;;4.90;3.20;;;3.30;99.90;;;;;;5037091;28;20835;-70
2022/01/16 12:16:47;;;;;;;2.30;1.70;;;3.30;99.90;;;;;;5037945;28;20528;-69
2022/01/16 12:19:44;;;;;;;1.30;1.20;;;3.40;99.90;;;;;;5036918;28;20465;-68
2022/01/16 12:22:43;;;;;;;4.20;2.00;;;3.40;99.90;;;;;;5036364;28;20546;-68
2022/01/16 12:25:32;;;;;;;1.83;1.00;;;3.40;99.90;;;;;;5037967;28;20433;-68
2022/01/16 12:28:22;;;;;;;1.73;1.23;;;3.40;99.90;;;;;;5035336;28;20962;-69
2022/01/16 12:31:12;;;;;;;2.87;1.87;;;3.40;99.90;;;;;;5037082;28;20507;-69
2022/01/16 12:34:01;;;;;;;3.80;3.40;;;3.50;99.90;;;;;;5035917;28;21115;-69
2022/01/16 12:36:48;;;;;;;4.37;2.37;;;3.50;99.90;;;;;;5037028;28;20801;-69
2022/01/16 12:39:42;;;;;;;0.80;0.80;;;3.40;99.90;;;;;;5035807;28;20456;-69
2022/01/16 12:42:29;;;;;;;1.27;1.17;;;3.50;99.90;;;;;;5036334;28;20441;-70
2022/01/16 12:45:16;;;;;;;1.37;1.13;;;3.60;99.90;;;;;;5036449;28;20425;-69
2022/01/16 12:48:05;;;;;;;2.30;1.37;;;3.50;99.90;;;;;;5037272;28;20421;-70
2022/01/16 12:51:00;;;;;;;9.63;4.93;;;3.60;99.90;;;;;;5036753;28;20475;-69
2022/01/16 12:53:49;;;;;;;5.40;3.13;;;3.50;99.90;;;;;;5038321;28;20430;-69
2022/01/16 12:56:38;;;;;;;1.90;1.73;;;3.50;99.90;;;;;;5037638;28;20459;-70
2022/01/16 12:59:27;;;;;;;2.10;2.00;;;3.50;99.90;;;;;;5035280;28;20464;-70
2022/01/16 13:02:15;;;;;;;0.50;0.50;;;3.50;99.90;;;;;;5040450;28;20445;-72
2022/01/16 13:05:04;;;;;;;0.40;0.40;;;3.50;99.90;;;;;;5040549;28;20965;-69
2022/01/16 13:08:00;;;;;;;3.17;2.93;;;3.60;99.90;;;;;;5041184;28;20452;-68
2022/01/16 13:10:47;;;;;;;0.73;0.73;;;3.60;99.90;;;;;;5045546;28;20819;-67
2022/01/16 13:13:34;;;;;;;3.67;3.03;;;3.60;99.90;;;;;;5040826;28;20946;-69
2022/01/16 13:16:24;;;;;;;5.90;2.87;;;3.60;99.90;;;;;;5043360;28;20425;-69
2022/01/16 13:19:15;;;;;;;0.83;0.83;;;3.60;99.90;;;;;;5040133;28;20977;-70
2022/01/16 13:22:11;;;;;;;2.40;1.60;;;3.70;99.90;;;;;;5040540;28;20465;-70
2022/01/16 13:25:02;;;;;;;4.57;1.63;;;3.70;99.90;;;;;;5040587;28;20961;-69
2022/01/16 13:27:49;;;;;;;0.80;0.80;;;3.70;99.90;;;;;;5039806;28;20512;-69
2022/01/16 13:30:36;;;;;;;1.30;1.30;;;3.80;99.90;;;;;;5040025;28;20425;-71
2022/01/16 13:33:23;;;;;;;0.50;0.50;;;3.80;99.90;;;;;;5042855;28;20428;-69
2022/01/16 13:36:10;;;;;;;2.03;1.83;;;3.80;99.90;;;;;;5041715;28;20430;-70
2022/01/16 13:38:58;;;;;;;2.50;2.30;;;3.80;99.90;;;;;;5040125;28;20473;-70
2022/01/16 13:41:45;;;;;;;2.90;2.70;;;3.80;99.90;;;;;;5041403;28;20472;-70
2022/01/16 13:44:32;;;;;;;1.30;1.30;;;3.70;99.90;;;;;;5041844;28;20437;-69
2022/01/16 13:47:21;;;;;;;0.90;0.90;;;3.80;99.90;;;;;;5041727;28;20424;-70
2022/01/16 13:50:13;;;;;;;1.43;1.33;;;3.70;99.90;;;;;;5041536;28;20418;-69
2022/01/16 13:53:02;;;;;;;1.87;1.77;;;3.70;99.90;;;;;;5040938;28;20469;-70
2022/01/16 13:55:53;;;;;;;3.30;0.93;;;3.70;99.90;;;;;;5039684;28;20926;-70
2022/01/16 13:58:44;;;;;;;0.70;0.70;;;3.80;99.90;;;;;;5038847;28;20467;-69
2022/01/16 14:01:32;;;;;;;1.53;1.53;;;3.70;99.90;;;;;;5039321;28;20977;-70
2022/01/16 14:04:20;;;;;;;2.77;1.60;;;3.80;99.90;;;;;;5038980;28;20425;-68
2022/01/16 14:07:07;;;;;;;1.80;1.60;;;3.80;99.90;;;;;;5039195;28;20425;-69
2022/01/16 14:09:56;;;;;;;0.50;0.50;;;3.80;99.90;;;;;;5038840;28;20429;-69
2022/01/16 14:12:56;;;;;;;3.37;1.93;;;3.70;99.90;;;;;;5038783;28;20437;-69
2022/01/16 14:16:02;;;;;;;1.73;1.47;;;3.80;99.90;;;;;;5039139;28;20421;-70
2022/01/16 14:19:08;;;;;;;0.80;0.80;;;3.80;99.90;;;;;;5038155;28;20855;-70
2022/01/16 14:21:59;;;;;;;0.50;0.50;;;3.80;99.90;;;;;;5036883;28;20838;-70
2022/01/16 14:24:50;;;;;;;2.33;2.13;;;3.90;99.90;;;;;;5038376;28;20479;-70
2022/01/16 14:27:37;;;;;;;2.20;2.00;;;3.80;99.90;;;;;;5045967;28;20452;-70
2022/01/16 14:30:25;;;;;;;1.47;1.20;;;3.80;99.90;;;;;;5048252;28;20421;-70
2022/01/16 14:33:12;;;;;;;3.70;2.67;;;3.80;99.90;;;;;;5045366;28;20430;-70
2022/01/16 14:35:59;;;;;;;2.10;1.43;;;3.80;99.90;;;;;;5037548;28;20436;-70
2022/01/16 14:38:46;;;;;;;1.57;1.47;;;3.80;99.90;;;;;;5049602;28;20464;-69
2022/01/16 14:41:35;;;;;;;1.13;1.03;;;3.80;99.90;;;;;;5050147;28;20445;-70
2022/01/16 14:44:25;;;;;;;0.93;0.93;;;3.80;99.90;;;;;;5041765;28;20930;-69
2022/01/16 14:47:14;;;;;;;4.50;3.13;;;3.80;99.90;;;;;;5045615;28;20429;-70
2022/01/16 14:50:01;;;;;;;4.90;3.60;;;3.80;99.90;;;;;;5040787;28;20483;-69
2022/01/16 14:52:48;;;;;;;9.83;3.07;;;3.80;99.90;;;;;;5047176;28;20449;-70
2022/01/16 14:55:37;;;;;;;1.77;1.23;;;3.80;99.90;;;;;;5040734;28;20440;-69
2022/01/16 14:58:24;;;;;;;2.50;1.53;;;3.80;99.90;;;;;;5039284;28;20507;-69
2022/01/16 15:01:12;;;;;;;1.03;1.03;;;3.80;99.90;;;;;;5047136;28;20448;-69
2022/01/16 15:04:01;;;;;;;2.50;1.23;;;3.80;99.90;;;;;;5039454;28;20436;-68
2022/01/16 15:06:48;;;;;;;1.03;1.03;;;3.80;99.90;;;;;;5040311;28;20429;-70
2022/01/16 15:09:35;;;;;;;0.53;0.50;;;3.80;99.90;;;;;;5045934;28;20942;-69
2022/01/16 15:12:23;;;;;;;6.17;3.20;;;3.90;99.90;;;;;;5039657;28;20511;-69
2022/01/16 15:15:11;;;;;;;1.63;1.30;;;3.90;99.90;;;;;;5041453;28;20511;-70
2022/01/16 15:17:59;;;;;;;0.40;0.40;;;3.90;99.90;;;;;;5045897;28;20426;-69
2022/01/16 15:20:49;;;;;;;7.70;2.83;;;3.90;99.90;;;;;;5037313;28;20556;-68
2022/01/16 15:23:36;;;;;;;1.23;1.13;;;3.90;99.90;;;;;;5034873;28;20417;-68
2022/01/16 15:26:23;;;;;;;3.30;2.10;;;3.90;99.90;;;;;;5035283;28;20432;-69
2022/01/16 15:29:11;;;;;;;0.50;0.50;;;3.80;99.90;;;;;;5033600;28;20417;-70